Huvudsida
METAR-TAF:

METAR-TAF

Flygplatser :

Taif, Saudiarabien

latitud: 21-29N, longitud: 040-33E, höjd: 1478 m

Aktuellt väderrapport

Denna rapport gjordes för 24 minuter sedan, klockan 20:00 UTC
Vind 5 kt från sydväst
Temperatur 19°C
Fuktighet 56%
Tryck 1019 hPa
Sikt 10 km eller mer
Spridda moln på en höjd av 3000 ft
Spridda moln på en höjd av 8000 ft

METAR: OETF 112000Z 23005KT 9999 SCT030 SCT080 19/10 Q1019 NOSIG

Tid: 23:24 (20:24 UTC)

Väderprognos

Denna rapport gjordes för 3 timmar och 24 minuter sedan, klockan 17:00 UTC
Prognos gäller från 11 kl. 18 UTC till 12 kl. 12 UTC
Vind 12 kt från ost
Sikt: 7000 m
Spridda moln på en höjd av 3000 ft
Temporärt
från 11 kl. 18 UTC till 11 kl. 24 UTC
Få moln på en höjd av 2500 ft, Cumulonimbus.
åska
Blir
från 12 kl. 00 UTC till 12 kl. 02 UTC
Vind 6 kt från syd/sydost i byarna ända upp till 16 kt

TAF: OETF 111700Z 1118/1212 10012KT 7000 SCT030 TEMPO 1118/1124 TS FEW025CB BECMG 1200/1202 16006G16KT

Aktuella väderrapporter och prognoser från 4000 flygplatser (METAR- och TAF-rapporter).

De tillgängliga stationerna syns som gula och röda prickar på kartan.

För musen över prickarna för att se namnen på stationerna.

Klicka sedan för att få väderrapporter och prognoser.

För att ändra kartan: Klicka på de gröna knapparna med ett svart kors på för att zooma in; den gröna knappen med ett streck på för att zooma ut; eller på de gröna pilarna för angränsande kartor.


METAR-TAF: